OHDAC EFHV-EFPO
Flight info
| Callsign | OHDAC |
|---|---|
| Flight time | 0h 50m |
| Altitude | 8000 |
| Route | NEPEK Y357 EVLIT DCT XORMU |
| Aircraft | DA42/L-SBDGRY/S |
Departure
| Time | 2026-04-26 11:23 |
|---|---|
| Airport | Hyvinkää Airfield (EFHV) |
Arrival
| Time | 2026-04-26 12:13 |
|---|---|
| Airport | Pori Airport (EFPO) |
| Time | Latitude | Longitude | Altitude | Speed | Heading |
|---|---|---|---|---|---|
| 2026-04-26 11:14 | 60.65241 | 24.88025 | 438 ft | 0 kts | 316° |
| 2026-04-26 11:18 | 60.65242 | 24.88025 | 438 ft | 0 kts | 316° |
| 2026-04-26 11:19 | 60.65242 | 24.88023 | 438 ft | 2 kts | 316° |
| 2026-04-26 11:19 | 60.65268 | 24.87980 | 438 ft | 0 kts | 326° |
| 2026-04-26 11:20 | 60.65283 | 24.87968 | 439 ft | 8 kts | 319° |
| 2026-04-26 11:20 | 60.65305 | 24.87985 | 439 ft | 8 kts | 69° |
| 2026-04-26 11:20 | 60.65397 | 24.88164 | 440 ft | 0 kts | 45° |
| 2026-04-26 11:20 | 60.65389 | 24.88210 | 440 ft | 6 kts | 136° |
| 2026-04-26 11:21 | 60.65336 | 24.88303 | 440 ft | 12 kts | 144° |
| 2026-04-26 11:21 | 60.65264 | 24.88439 | 439 ft | 16 kts | 137° |
| 2026-04-26 11:21 | 60.65170 | 24.88621 | 438 ft | 20 kts | 137° |
| 2026-04-26 11:21 | 60.65091 | 24.88773 | 437 ft | 0 kts | 61° |
| 2026-04-26 11:22 | 60.65094 | 24.88775 | 437 ft | 0 kts | 3° |
| 2026-04-26 11:22 | 60.65149 | 24.88654 | 438 ft | 37 kts | 318° |
| 2026-04-26 11:22 | 60.65454 | 24.88068 | 569 ft | 67 kts | 325° |
| 2026-04-26 11:22 | 60.65828 | 24.87323 | 849 ft | 78 kts | 324° |
| 2026-04-26 11:23 | 60.66176 | 24.86537 | 1233 ft | 76 kts | 320° |
| 2026-04-26 11:23 | 60.66419 | 24.85661 | 1641 ft | 75 kts | 307° |
| 2026-04-26 11:23 | 60.66532 | 24.84477 | 1908 ft | 91 kts | 292° |
| 2026-04-26 11:23 | 60.66613 | 24.83497 | 2423 ft | 64 kts | 309° |
| 2026-04-26 11:24 | 60.66750 | 24.82680 | 2824 ft | 56 kts | 313° |
| 2026-04-26 11:24 | 60.66888 | 24.81946 | 3143 ft | 57 kts | 315° |
| 2026-04-26 11:24 | 60.67023 | 24.81261 | 3466 ft | 56 kts | 317° |
| 2026-04-26 11:24 | 60.67195 | 24.80490 | 3750 ft | 65 kts | 316° |
| 2026-04-26 11:25 | 60.67393 | 24.79596 | 4029 ft | 73 kts | 314° |
| 2026-04-26 11:25 | 60.67600 | 24.78630 | 4347 ft | 76 kts | 313° |
| 2026-04-26 11:25 | 60.67810 | 24.77646 | 4676 ft | 77 kts | 313° |
| 2026-04-26 11:25 | 60.68023 | 24.76665 | 5018 ft | 77 kts | 313° |
| 2026-04-26 11:26 | 60.68240 | 24.75673 | 5358 ft | 77 kts | 314° |
| 2026-04-26 11:26 | 60.68459 | 24.74680 | 5700 ft | 77 kts | 313° |
| 2026-04-26 11:26 | 60.68679 | 24.73690 | 6043 ft | 77 kts | 313° |
| 2026-04-26 11:26 | 60.68895 | 24.72710 | 6375 ft | 77 kts | 313° |
| 2026-04-26 11:27 | 60.69117 | 24.71714 | 6707 ft | 78 kts | 313° |
| 2026-04-26 11:27 | 60.69344 | 24.70699 | 7031 ft | 80 kts | 313° |
| 2026-04-26 11:27 | 60.69578 | 24.69655 | 7351 ft | 82 kts | 312° |
| 2026-04-26 11:27 | 60.69814 | 24.68603 | 7650 ft | 85 kts | 312° |
| 2026-04-26 11:28 | 60.70106 | 24.67367 | 7727 ft | 107 kts | 309° |
| 2026-04-26 11:28 | 60.70451 | 24.65851 | 7731 ft | 125 kts | 307° |
| 2026-04-26 11:28 | 60.70822 | 24.64164 | 7724 ft | 136 kts | 306° |
| 2026-04-26 11:28 | 60.71223 | 24.62326 | 7720 ft | 142 kts | 306° |
| 2026-04-26 11:29 | 60.71628 | 24.60483 | 7719 ft | 145 kts | 305° |
| 2026-04-26 11:29 | 60.72046 | 24.58565 | 7720 ft | 146 kts | 305° |
| 2026-04-26 11:29 | 60.72464 | 24.56675 | 7717 ft | 147 kts | 305° |
| 2026-04-26 11:29 | 60.72889 | 24.54753 | 7723 ft | 147 kts | 305° |
| 2026-04-26 11:30 | 60.73309 | 24.52852 | 7721 ft | 147 kts | 305° |
| 2026-04-26 11:30 | 60.73587 | 24.51588 | 7718 ft | 147 kts | 305° |
| 2026-04-26 11:30 | 60.74154 | 24.49015 | 7722 ft | 147 kts | 305° |
| 2026-04-26 11:30 | 60.74574 | 24.47127 | 7719 ft | 147 kts | 306° |
| 2026-04-26 11:31 | 60.75000 | 24.45215 | 7718 ft | 147 kts | 306° |
| 2026-04-26 11:31 | 60.75426 | 24.43297 | 7718 ft | 147 kts | 306° |
| 2026-04-26 11:31 | 60.75850 | 24.41388 | 7717 ft | 147 kts | 306° |
| 2026-04-26 11:31 | 60.76273 | 24.39484 | 7720 ft | 147 kts | 306° |
| 2026-04-26 11:32 | 60.76699 | 24.37555 | 7722 ft | 147 kts | 306° |
| 2026-04-26 11:32 | 60.77123 | 24.35642 | 7721 ft | 147 kts | 306° |
| 2026-04-26 11:32 | 60.77546 | 24.33733 | 7727 ft | 147 kts | 305° |
| 2026-04-26 11:32 | 60.77964 | 24.31842 | 7730 ft | 148 kts | 305° |
| 2026-04-26 11:33 | 60.78391 | 24.29914 | 7731 ft | 148 kts | 304° |
| 2026-04-26 11:33 | 60.78815 | 24.27992 | 7732 ft | 148 kts | 305° |
| 2026-04-26 11:33 | 60.79239 | 24.26066 | 7728 ft | 148 kts | 305° |
| 2026-04-26 11:33 | 60.79662 | 24.24142 | 7730 ft | 147 kts | 304° |
| 2026-04-26 11:34 | 60.80087 | 24.22219 | 7732 ft | 147 kts | 304° |
| 2026-04-26 11:34 | 60.80509 | 24.20296 | 7730 ft | 147 kts | 304° |
| 2026-04-26 11:34 | 60.80926 | 24.18395 | 7727 ft | 147 kts | 304° |
| 2026-04-26 11:34 | 60.81346 | 24.16481 | 7729 ft | 147 kts | 304° |
| 2026-04-26 11:35 | 60.81765 | 24.14567 | 7730 ft | 147 kts | 304° |
| 2026-04-26 11:35 | 60.82185 | 24.12653 | 7724 ft | 147 kts | 304° |
| 2026-04-26 11:35 | 60.82603 | 24.10739 | 7720 ft | 147 kts | 305° |
| 2026-04-26 11:35 | 60.82877 | 24.09488 | 7719 ft | 146 kts | 305° |
| 2026-04-26 11:36 | 60.83438 | 24.06920 | 7725 ft | 147 kts | 305° |
| 2026-04-26 11:36 | 60.83857 | 24.05008 | 7721 ft | 147 kts | 304° |
| 2026-04-26 11:36 | 60.84272 | 24.03104 | 7723 ft | 147 kts | 305° |
| 2026-04-26 11:36 | 60.84692 | 24.01163 | 7721 ft | 147 kts | 304° |
| 2026-04-26 11:37 | 60.85104 | 23.99265 | 7724 ft | 147 kts | 303° |
| 2026-04-26 11:37 | 60.85525 | 23.97336 | 7741 ft | 147 kts | 304° |
| 2026-04-26 11:37 | 60.85942 | 23.95423 | 7745 ft | 146 kts | 304° |
| 2026-04-26 11:37 | 60.86357 | 23.93536 | 7754 ft | 146 kts | 304° |
| 2026-04-26 11:38 | 60.86772 | 23.91625 | 7748 ft | 146 kts | 306° |
| 2026-04-26 11:38 | 60.87186 | 23.89704 | 7743 ft | 145 kts | 304° |
| 2026-04-26 11:38 | 60.87593 | 23.87828 | 7751 ft | 145 kts | 305° |
| 2026-04-26 11:38 | 60.88000 | 23.85948 | 7745 ft | 144 kts | 304° |
| 2026-04-26 11:39 | 60.88409 | 23.84053 | 7750 ft | 144 kts | 304° |
| 2026-04-26 11:39 | 60.88819 | 23.82157 | 7749 ft | 144 kts | 305° |
| 2026-04-26 11:39 | 60.89225 | 23.80271 | 7744 ft | 145 kts | 304° |
| 2026-04-26 11:39 | 60.89634 | 23.78380 | 7750 ft | 144 kts | 304° |
| 2026-04-26 11:40 | 60.90039 | 23.76504 | 7751 ft | 143 kts | 304° |
| 2026-04-26 11:40 | 60.90442 | 23.74620 | 7744 ft | 144 kts | 303° |
| 2026-04-26 11:40 | 60.90848 | 23.72733 | 7759 ft | 144 kts | 305° |
| 2026-04-26 11:40 | 60.91251 | 23.70871 | 7755 ft | 143 kts | 305° |
| 2026-04-26 11:41 | 60.91646 | 23.68995 | 7764 ft | 143 kts | 305° |
| 2026-04-26 11:42 | 60.94420 | 23.56023 | 7749 ft | 139 kts | 305° |
| 2026-04-26 11:43 | 60.94809 | 23.54182 | 7762 ft | 139 kts | 305° |
| 2026-04-26 11:43 | 60.95197 | 23.52385 | 7758 ft | 139 kts | 305° |
| 2026-04-26 11:43 | 60.95589 | 23.50540 | 7764 ft | 138 kts | 305° |
| 2026-04-26 11:43 | 60.95976 | 23.48714 | 7765 ft | 139 kts | 304° |
| 2026-04-26 11:44 | 60.96365 | 23.46881 | 7759 ft | 139 kts | 305° |
| 2026-04-26 11:44 | 60.96748 | 23.45066 | 7757 ft | 139 kts | 305° |
| 2026-04-26 11:44 | 60.97141 | 23.43224 | 7759 ft | 139 kts | 304° |
| 2026-04-26 11:44 | 60.97528 | 23.41391 | 7766 ft | 139 kts | 304° |
| 2026-04-26 11:45 | 60.97914 | 23.39566 | 7770 ft | 140 kts | 304° |
| 2026-04-26 11:45 | 60.98313 | 23.37738 | 7770 ft | 138 kts | 308° |
| 2026-04-26 11:45 | 60.98797 | 23.36061 | 7773 ft | 136 kts | 310° |
| 2026-04-26 11:45 | 60.99289 | 23.34377 | 7770 ft | 136 kts | 311° |
| 2026-04-26 11:46 | 60.99795 | 23.32694 | 7765 ft | 136 kts | 312° |
| 2026-04-26 11:46 | 61.00286 | 23.31038 | 7763 ft | 136 kts | 311° |
| 2026-04-26 11:46 | 61.00787 | 23.29366 | 7765 ft | 136 kts | 310° |
| 2026-04-26 11:46 | 61.01287 | 23.27711 | 7769 ft | 135 kts | 310° |
| 2026-04-26 11:47 | 61.01784 | 23.26042 | 7772 ft | 135 kts | 311° |
| 2026-04-26 11:47 | 61.02272 | 23.24411 | 7777 ft | 135 kts | 311° |
| 2026-04-26 11:47 | 61.02773 | 23.22738 | 7778 ft | 135 kts | 311° |
| 2026-04-26 11:47 | 61.03265 | 23.21102 | 7770 ft | 134 kts | 311° |
| 2026-04-26 11:48 | 61.03760 | 23.19451 | 7772 ft | 135 kts | 311° |
| 2026-04-26 11:48 | 61.04253 | 23.17805 | 7784 ft | 135 kts | 311° |
| 2026-04-26 11:48 | 61.04752 | 23.16142 | 7779 ft | 135 kts | 311° |
| 2026-04-26 11:48 | 61.05244 | 23.14495 | 7782 ft | 135 kts | 312° |
| 2026-04-26 11:49 | 61.05738 | 23.12841 | 7791 ft | 135 kts | 311° |
| 2026-04-26 11:49 | 61.06236 | 23.11184 | 7784 ft | 136 kts | 311° |
| 2026-04-26 11:49 | 61.06735 | 23.09508 | 7784 ft | 135 kts | 311° |
| 2026-04-26 11:49 | 61.07224 | 23.07856 | 7787 ft | 135 kts | 311° |
| 2026-04-26 11:50 | 61.07723 | 23.06193 | 7785 ft | 135 kts | 311° |
| 2026-04-26 11:50 | 61.08217 | 23.04556 | 7768 ft | 135 kts | 310° |
| 2026-04-26 11:50 | 61.08702 | 23.02900 | 7783 ft | 133 kts | 311° |
| 2026-04-26 11:50 | 61.09197 | 23.01243 | 7779 ft | 133 kts | 310° |
| 2026-04-26 11:51 | 61.09683 | 22.99603 | 7783 ft | 133 kts | 311° |
| 2026-04-26 11:51 | 61.10168 | 22.97979 | 7789 ft | 133 kts | 311° |
| 2026-04-26 11:51 | 61.10656 | 22.96337 | 7803 ft | 134 kts | 311° |
| 2026-04-26 11:51 | 61.11141 | 22.94682 | 7788 ft | 135 kts | 310° |
| 2026-04-26 11:52 | 61.11641 | 22.93021 | 7820 ft | 135 kts | 312° |
| 2026-04-26 11:52 | 61.12122 | 22.91382 | 7803 ft | 134 kts | 313° |
| 2026-04-26 11:52 | 61.12611 | 22.89732 | 7810 ft | 133 kts | 312° |
| 2026-04-26 11:52 | 61.13100 | 22.88079 | 7800 ft | 133 kts | 312° |
| 2026-04-26 11:53 | 61.13581 | 22.86461 | 7797 ft | 132 kts | 311° |
| 2026-04-26 11:53 | 61.14068 | 22.84833 | 7827 ft | 131 kts | 313° |
| 2026-04-26 11:53 | 61.14539 | 22.83205 | 7807 ft | 131 kts | 312° |
| 2026-04-26 11:54 | 61.15484 | 22.80014 | 7802 ft | 128 kts | 310° |
| 2026-04-26 11:54 | 61.15939 | 22.78468 | 7815 ft | 126 kts | 312° |
| 2026-04-26 11:54 | 61.16396 | 22.76899 | 7817 ft | 125 kts | 313° |
| 2026-04-26 11:54 | 61.16854 | 22.75338 | 7825 ft | 125 kts | 310° |
| 2026-04-26 11:55 | 61.17317 | 22.73789 | 7743 ft | 130 kts | 312° |
| 2026-04-26 11:55 | 61.17785 | 22.72201 | 7593 ft | 130 kts | 312° |
| 2026-04-26 11:55 | 61.18254 | 22.70590 | 7426 ft | 129 kts | 313° |
| 2026-04-26 11:55 | 61.18711 | 22.69007 | 7290 ft | 126 kts | 313° |
| 2026-04-26 11:56 | 61.19176 | 22.67443 | 7149 ft | 127 kts | 312° |
| 2026-04-26 11:56 | 61.19636 | 22.65879 | 7013 ft | 127 kts | 311° |
| 2026-04-26 11:56 | 61.20092 | 22.64319 | 6874 ft | 127 kts | 311° |
| 2026-04-26 11:56 | 61.20549 | 22.62761 | 6731 ft | 127 kts | 311° |
| 2026-04-26 11:57 | 61.21011 | 22.61176 | 6587 ft | 127 kts | 311° |
| 2026-04-26 11:57 | 61.21467 | 22.59617 | 6448 ft | 127 kts | 311° |
| 2026-04-26 11:57 | 61.21930 | 22.58029 | 6305 ft | 127 kts | 311° |
| 2026-04-26 11:57 | 61.22389 | 22.56453 | 6164 ft | 127 kts | 311° |
| 2026-04-26 11:58 | 61.22844 | 22.54894 | 6022 ft | 126 kts | 311° |
| 2026-04-26 11:58 | 61.23301 | 22.53320 | 5880 ft | 126 kts | 311° |
| 2026-04-26 11:58 | 61.23758 | 22.51754 | 5742 ft | 126 kts | 311° |
| 2026-04-26 11:58 | 61.24207 | 22.50210 | 5606 ft | 126 kts | 311° |
| 2026-04-26 11:59 | 61.24665 | 22.48640 | 5468 ft | 126 kts | 311° |
| 2026-04-26 11:59 | 61.25117 | 22.47085 | 5327 ft | 126 kts | 311° |
| 2026-04-26 11:59 | 61.25573 | 22.45517 | 5188 ft | 126 kts | 311° |
| 2026-04-26 11:59 | 61.26026 | 22.43956 | 5055 ft | 126 kts | 311° |
| 2026-04-26 12:00 | 61.26482 | 22.42387 | 4919 ft | 126 kts | 311° |
| 2026-04-26 12:00 | 61.26934 | 22.40825 | 4777 ft | 126 kts | 311° |
| 2026-04-26 12:00 | 61.27389 | 22.39254 | 4633 ft | 126 kts | 311° |
| 2026-04-26 12:00 | 61.27839 | 22.37700 | 4493 ft | 126 kts | 310° |
| 2026-04-26 12:01 | 61.28292 | 22.36134 | 4355 ft | 126 kts | 311° |
| 2026-04-26 12:01 | 61.28759 | 22.34529 | 4218 ft | 133 kts | 309° |
| 2026-04-26 12:01 | 61.29249 | 22.32840 | 4071 ft | 137 kts | 309° |
| 2026-04-26 12:01 | 61.29740 | 22.31135 | 3920 ft | 140 kts | 309° |
| 2026-04-26 12:02 | 61.30247 | 22.29376 | 3761 ft | 141 kts | 308° |
| 2026-04-26 12:02 | 61.30746 | 22.27642 | 3604 ft | 142 kts | 308° |
| 2026-04-26 12:02 | 61.31251 | 22.25887 | 3445 ft | 142 kts | 309° |
| 2026-04-26 12:02 | 61.31761 | 22.24110 | 3286 ft | 142 kts | 309° |
| 2026-04-26 12:03 | 61.32265 | 22.22360 | 3132 ft | 141 kts | 308° |
| 2026-04-26 12:03 | 61.32766 | 22.20616 | 3018 ft | 139 kts | 308° |
| 2026-04-26 12:03 | 61.33262 | 22.18890 | 2881 ft | 139 kts | 307° |
| 2026-04-26 12:03 | 61.33759 | 22.17157 | 2739 ft | 140 kts | 308° |
| 2026-04-26 12:04 | 61.34260 | 22.15415 | 2592 ft | 140 kts | 308° |
| 2026-04-26 12:04 | 61.34761 | 22.13654 | 2445 ft | 141 kts | 307° |
| 2026-04-26 12:04 | 61.35263 | 22.11913 | 2292 ft | 138 kts | 307° |
| 2026-04-26 12:04 | 61.35740 | 22.10233 | 2203 ft | 131 kts | 307° |
| 2026-04-26 12:05 | 61.36084 | 22.08509 | 2174 ft | 134 kts | 285° |
| 2026-04-26 12:05 | 61.36216 | 22.06654 | 2177 ft | 122 kts | 304° |
| 2026-04-26 12:05 | 61.36698 | 22.05344 | 2090 ft | 101 kts | 321° |
| 2026-04-26 12:05 | 61.37176 | 22.04330 | 2032 ft | 97 kts | 319° |
| 2026-04-26 12:06 | 61.37613 | 22.03227 | 2024 ft | 99 kts | 314° |
| 2026-04-26 12:06 | 61.38036 | 22.02115 | 2015 ft | 91 kts | 317° |
| 2026-04-26 12:06 | 61.38428 | 22.01153 | 2011 ft | 85 kts | 317° |
| 2026-04-26 12:06 | 61.38809 | 22.00244 | 2114 ft | 82 kts | 320° |
| 2026-04-26 12:07 | 61.39187 | 21.99332 | 2140 ft | 82 kts | 319° |
| 2026-04-26 12:07 | 61.39571 | 21.98448 | 2153 ft | 82 kts | 320° |
| 2026-04-26 12:07 | 61.39907 | 21.97599 | 2153 ft | 75 kts | 315° |
| 2026-04-26 12:07 | 61.40214 | 21.96700 | 2134 ft | 78 kts | 315° |
| 2026-04-26 12:08 | 61.40517 | 21.95771 | 2006 ft | 75 kts | 315° |
| 2026-04-26 12:08 | 61.40833 | 21.94909 | 1828 ft | 75 kts | 317° |
| 2026-04-26 12:08 | 61.41167 | 21.94090 | 1624 ft | 73 kts | 321° |
| 2026-04-26 12:08 | 61.41464 | 21.93244 | 1517 ft | 73 kts | 313° |
| 2026-04-26 12:09 | 61.41746 | 21.92358 | 1409 ft | 73 kts | 316° |
| 2026-04-26 12:09 | 61.42043 | 21.91536 | 1350 ft | 69 kts | 316° |
| 2026-04-26 12:09 | 61.42355 | 21.90731 | 1227 ft | 67 kts | 317° |
| 2026-04-26 12:09 | 61.42640 | 21.90051 | 1057 ft | 69 kts | 318° |
| 2026-04-26 12:10 | 61.42938 | 21.89198 | 1031 ft | 75 kts | 311° |
| 2026-04-26 12:10 | 61.43203 | 21.88332 | 1016 ft | 69 kts | 316° |
| 2026-04-26 12:10 | 61.43486 | 21.87506 | 925 ft | 70 kts | 318° |
| 2026-04-26 12:10 | 61.43823 | 21.86693 | 809 ft | 76 kts | 319° |
| 2026-04-26 12:11 | 61.44143 | 21.85803 | 719 ft | 77 kts | 314° |
| 2026-04-26 12:11 | 61.44465 | 21.84912 | 575 ft | 77 kts | 315° |
| 2026-04-26 12:11 | 61.44779 | 21.84009 | 464 ft | 73 kts | 306° |
| 2026-04-26 12:11 | 61.45077 | 21.83105 | 337 ft | 75 kts | 307° |
| 2026-04-26 12:12 | 61.45359 | 21.82304 | 297 ft | 63 kts | 300° |
| 2026-04-26 12:12 | 61.45627 | 21.81577 | 125 ft | 63 kts | 303° |
| 2026-04-26 12:12 | 61.45869 | 21.80860 | 66 ft | 62 kts | 315° |
| 2026-04-26 12:12 | 61.46027 | 21.80405 | 43 ft | 56 kts | 303° |
| 2026-04-26 12:13 | 61.46292 | 21.79642 | 39 ft | 38 kts | 308° |
| 2026-04-26 12:13 | 61.46216 | 21.79327 | 40 ft | 23 kts | 225° |
| 2026-04-26 12:13 | 61.46025 | 21.78952 | 41 ft | 46 kts | 257° |
| 2026-04-26 12:13 | 61.46035 | 21.78623 | 42 ft | 16 kts | 159° |
| 2026-04-26 12:14 | 61.46037 | 21.78709 | 42 ft | 0 kts | 262° |